createdAt,value
2019-05-13T00:02:40.497Z,10.24
2019-05-13T00:07:46.665Z,8.76
2019-05-13T00:12:53.965Z,10.81
2019-05-13T00:18:00.360Z,7.50
2019-05-13T00:23:06.641Z,6.99
2019-05-13T00:28:14.418Z,10.17
2019-05-13T00:33:21.046Z,10.10
2019-05-13T00:38:27.839Z,9.11
2019-05-13T00:43:34.245Z,7.62
2019-05-13T00:48:40.387Z,11.05
2019-05-13T00:53:46.976Z,10.17
2019-05-13T00:58:54.093Z,7.88
2019-05-13T01:04:00.532Z,9.51
2019-05-13T01:09:06.923Z,7.66
2019-05-13T01:14:14.306Z,8.24
2019-05-13T01:19:20.819Z,9.89
2019-05-13T01:24:27.216Z,8.44
2019-05-13T01:29:34.419Z,8.67
2019-05-13T01:34:41.120Z,10.89
2019-05-13T01:39:47.305Z,9.98
2019-05-13T01:44:54.012Z,8.21
2019-05-13T01:50:00.379Z,9.03
2019-05-13T01:55:06.752Z,7.62
2019-05-13T02:00:14.219Z,8.93
2019-05-13T02:05:20.964Z,11.34
2019-05-13T02:10:27.654Z,6.94
2019-05-13T02:15:34.022Z,9.65
2019-05-13T02:20:40.199Z,8.46
2019-05-13T02:25:46.476Z,8.17
2019-05-13T02:30:55.945Z,10.16
2019-05-13T02:35:53.649Z,9.33
2019-05-13T02:41:02.864Z,8.46
2019-05-13T02:46:12.839Z,6.39
2019-05-13T02:51:22.761Z,7.56
2019-05-13T02:56:29.494Z,9.51
2019-05-13T03:01:36.511Z,9.21
2019-05-13T03:06:43.622Z,6.82
2019-05-13T03:11:53.567Z,8.98
2019-05-13T03:16:52.494Z,10.12
2019-05-13T03:22:02.633Z,8.38
2019-05-13T03:27:02.278Z,8.28
2019-05-13T03:32:15.422Z,7.79
2019-05-13T03:37:15.350Z,9.69
2019-05-13T03:42:22.823Z,8.82
2019-05-13T03:47:32.739Z,8.77
2019-05-13T03:52:33.285Z,9.37
2019-05-13T03:57:33.636Z,7.88
2019-05-13T04:02:32.567Z,9.47
2019-05-13T04:07:39.313Z,10.30
2019-05-13T04:12:45.505Z,8.99
2019-05-13T04:17:53.038Z,8.50
2019-05-13T04:23:03.048Z,8.46
2019-05-13T04:28:13.087Z,7.84
2019-05-13T04:33:09.996Z,7.89
2019-05-13T04:38:16.911Z,7.50
2019-05-13T04:43:23.815Z,8.58
2019-05-13T04:48:33.622Z,9.24
2019-05-13T04:53:33.312Z,9.83
2019-05-13T04:58:42.898Z,9.76
2019-05-13T05:03:52.804Z,10.05
2019-05-13T05:08:52.321Z,10.25
2019-05-13T05:13:58.826Z,10.34
2019-05-13T05:19:05.511Z,9.64
2019-05-13T05:24:12.387Z,7.89
2019-05-13T05:29:18.773Z,7.51
2019-05-13T05:34:24.949Z,8.72
2019-05-13T05:39:31.608Z,8.72
2019-05-13T05:44:38.087Z,9.77
2019-05-13T05:49:48.016Z,8.37
2019-05-13T05:54:54.587Z,9.71
2019-05-13T06:00:02.327Z,13.37
2019-05-13T06:05:08.908Z,17.53
2019-05-13T06:10:15.691Z,14.49
2019-05-13T06:15:22.638Z,10.91
2019-05-13T06:20:31.515Z,15.63
2019-05-13T06:25:38.138Z,30.92
2019-05-13T06:30:44.955Z,11.18
2019-05-13T06:35:52.138Z,10.52
2019-05-13T06:41:03.658Z,8.84
2019-05-13T06:46:03.478Z,5.90
2019-05-13T06:51:11.632Z,12.26
2019-05-13T06:56:18.064Z,5.43
2019-05-13T07:01:26.659Z,6.92
2019-05-13T07:06:33.169Z,6.77
2019-05-13T07:11:41.673Z,16.42
2019-05-13T07:16:48.210Z,7.75
2019-05-13T07:21:54.907Z,5.58
2019-05-13T07:27:02.061Z,6.45
2019-05-13T07:32:08.792Z,5.37
2019-05-13T07:37:15.064Z,6.85
2019-05-13T07:42:22.397Z,6.06
2019-05-13T07:47:31.224Z,5.71
2019-05-13T07:52:38.268Z,7.02
2019-05-13T07:57:44.699Z,6.50
2019-05-13T08:02:52.336Z,6.99
2019-05-13T08:07:58.688Z,4.47
2019-05-13T08:13:05.384Z,6.15
2019-05-13T08:18:12.278Z,4.34
2019-05-13T08:23:21.538Z,6.80
2019-05-13T08:28:28.335Z,5.14
2019-05-13T08:33:34.903Z,4.86
2019-05-13T08:38:43.168Z,5.43
2019-05-13T08:43:52.186Z,5.11
2019-05-13T08:48:59.018Z,5.73
2019-05-13T08:54:05.767Z,10.56
2019-05-13T08:59:12.158Z,10.76
2019-05-13T09:04:18.439Z,6.06
2019-05-13T09:09:24.832Z,3.77
2019-05-13T09:14:32.416Z,3.53
2019-05-13T09:19:41.231Z,3.86
2019-05-13T09:24:48.063Z,4.42
2019-05-13T09:29:54.449Z,4.15
2019-05-13T09:35:03.064Z,3.69
2019-05-13T09:40:11.494Z,5.29
2019-05-13T09:45:18.046Z,6.23
2019-05-13T09:55:32.531Z,3.99
2019-05-13T10:00:41.876Z,4.07
2019-05-13T10:05:51.470Z,3.97
2019-05-13T10:10:58.474Z,2.98
2019-05-13T10:16:04.958Z,2.69
2019-05-13T10:21:11.682Z,4.13
2019-05-13T10:26:18.102Z,2.76
2019-05-13T10:31:24.693Z,4.51
2019-05-13T10:36:31.159Z,3.16
2019-05-13T10:41:37.560Z,2.96
2019-05-13T10:46:44.261Z,3.46
2019-05-13T10:51:52.611Z,3.00
2019-05-13T10:56:59.849Z,3.39
2019-05-13T11:02:07.691Z,5.67
2019-05-13T11:07:14.350Z,4.20
2019-05-13T11:12:22.787Z,3.70
2019-05-13T11:17:30.916Z,6.07
2019-05-13T11:22:29.339Z,5.57
2019-05-13T11:27:35.842Z,4.65
2019-05-13T11:32:42.824Z,4.11
2019-05-13T11:37:51.565Z,3.89
2019-05-13T11:42:58.564Z,4.62
2019-05-13T11:48:05.061Z,4.17
2019-05-13T11:53:31.507Z,3.95
2019-05-13T11:58:18.127Z,5.79
2019-05-13T12:03:24.805Z,9.88
2019-05-13T12:08:33.787Z,5.58
2019-05-13T12:13:42.641Z,5.02
2019-05-13T12:18:51.216Z,2.99
2019-05-13T12:24:06.658Z,5.52
2019-05-13T12:29:05.744Z,4.58
2019-05-13T12:34:13.234Z,6.17
2019-05-13T12:39:23.843Z,4.86
2019-05-13T12:44:22.802Z,3.72
2019-05-13T12:49:33.518Z,3.23
2019-05-13T12:54:32.863Z,4.44
2019-05-13T12:59:43.026Z,6.01
2019-05-13T13:05:06.890Z,4.15
2019-05-13T13:09:46.631Z,2.65
2019-05-13T13:14:54.376Z,2.74
2019-05-13T13:20:08.782Z,3.70
2019-05-13T13:25:06.073Z,7.15
2019-05-13T13:30:12.964Z,3.39
2019-05-13T13:35:21.240Z,4.23
2019-05-13T13:40:34.078Z,3.95
2019-05-13T13:45:36.818Z,3.73
2019-05-13T13:50:37.495Z,3.32
2019-05-13T13:55:44.706Z,2.39
2019-05-13T14:01:05.645Z,5.87
2019-05-13T14:05:57.789Z,4.79
2019-05-13T14:07:04.842Z,4.47
2019-05-13T14:11:04.226Z,4.56
2019-05-13T14:16:24.876Z,2.77
2019-05-13T14:21:17.196Z,1.75
2019-05-13T14:26:23.475Z,2.08
2019-05-13T14:31:32.322Z,3.51
2019-05-13T14:36:39.453Z,3.57
2019-05-13T14:41:46.003Z,6.70
2019-05-13T14:46:52.556Z,4.39
2019-05-13T14:52:01.268Z,4.56
2019-05-13T14:57:11.742Z,2.75
2019-05-13T15:02:11.983Z,3.00
2019-05-13T15:07:18.724Z,2.79
2019-05-13T15:12:26.612Z,3.14
2019-05-13T15:17:34.828Z,5.47
2019-05-13T15:22:42.543Z,5.01
2019-05-13T15:27:48.928Z,4.66
2019-05-13T15:32:55.523Z,4.57
2019-05-13T15:38:02.223Z,2.67
2019-05-13T15:43:11.646Z,3.77
2019-05-13T15:48:18.375Z,2.48
2019-05-13T15:53:25.584Z,3.61
2019-05-13T15:58:40.064Z,3.77
2019-05-13T16:03:38.824Z,3.65
2019-05-13T16:08:45.230Z,4.65
2019-05-13T16:13:52.085Z,3.32
2019-05-13T16:18:58.462Z,2.76
2019-05-13T16:24:04.947Z,3.40
2019-05-13T16:29:12.623Z,4.30
2019-05-13T16:34:22.279Z,4.33
2019-05-13T16:39:29.056Z,3.55
2019-05-13T16:44:36.822Z,6.06
2019-05-13T16:49:43.441Z,4.08
2019-05-13T16:54:53.142Z,3.83
2019-05-13T16:59:51.805Z,3.33
2019-05-13T17:05:01.442Z,3.22
2019-05-13T17:10:07.967Z,4.25
2019-05-13T17:15:14.770Z,3.63
2019-05-13T17:20:25.964Z,4.19
2019-05-13T17:25:24.054Z,4.83
2019-05-13T17:30:32.056Z,3.91
2019-05-13T17:35:39.150Z,3.36
2019-05-13T17:40:49.786Z,4.58
2019-05-13T17:45:47.227Z,4.63
2019-05-13T17:50:53.785Z,3.02
2019-05-13T17:56:02.362Z,3.81
2019-05-13T18:01:09.237Z,3.57
2019-05-13T18:06:16.374Z,4.89
2019-05-13T18:11:22.932Z,3.22
2019-05-13T18:16:29.426Z,3.05
2019-05-13T18:21:35.964Z,4.31
2019-05-13T18:26:42.581Z,4.87
2019-05-13T18:31:52.243Z,3.42
2019-05-13T18:37:04.231Z,4.10
2019-05-13T18:42:01.602Z,5.15
2019-05-13T18:47:08.617Z,4.15
2019-05-13T18:52:15.799Z,4.01
2019-05-13T18:57:22.280Z,4.20
2019-05-13T19:02:28.964Z,2.69
2019-05-13T19:07:35.375Z,5.15
2019-05-13T19:12:42.256Z,5.66
2019-05-13T19:17:48.789Z,4.39
2019-05-13T19:22:55.502Z,4.36
2019-05-13T19:28:02.505Z,4.48
2019-05-13T19:33:08.891Z,3.61
2019-05-13T19:38:15.445Z,4.18
2019-05-13T19:43:22.110Z,3.02
2019-05-13T19:48:28.556Z,4.20
2019-05-13T19:53:34.970Z,4.32
2019-05-13T19:58:41.517Z,5.67
2019-05-13T20:03:47.725Z,3.74
2019-05-13T20:08:54.192Z,4.67
2019-05-13T20:14:01.365Z,3.06
2019-05-13T20:19:08.079Z,4.95
2019-05-13T20:24:14.356Z,5.78
2019-05-13T20:29:20.953Z,5.05
2019-05-13T20:34:27.463Z,4.47
2019-05-13T20:39:34.028Z,4.29
2019-05-13T20:44:41.987Z,5.09
2019-05-13T20:50:00.915Z,4.02
2019-05-13T20:54:55.128Z,3.12
2019-05-13T21:00:02.340Z,5.13
2019-05-13T21:05:09.001Z,4.91
2019-05-13T21:10:15.311Z,4.29
2019-05-13T21:15:21.701Z,4.43
2019-05-13T21:20:27.889Z,4.39
2019-05-13T21:25:34.030Z,6.43
2019-05-13T21:30:42.033Z,4.47
2019-05-13T21:35:48.444Z,4.09
2019-05-13T21:40:54.730Z,4.73
2019-05-13T21:46:01.911Z,5.40
2019-05-13T21:51:08.721Z,4.01
2019-05-13T21:56:14.893Z,4.93
2019-05-13T22:01:23.440Z,3.88
2019-05-13T22:06:32.254Z,3.84
2019-05-13T22:11:38.770Z,4.46
2019-05-13T22:16:44.967Z,5.10
2019-05-13T22:21:51.592Z,4.59
2019-05-13T22:26:58.033Z,4.24
2019-05-13T22:32:04.388Z,4.31
2019-05-13T22:37:11.731Z,3.67
2019-05-13T22:42:18.302Z,4.33
2019-05-13T22:47:24.792Z,5.13
2019-05-13T22:52:32.828Z,5.52
2019-05-13T22:57:41.757Z,5.19
2019-05-13T23:02:48.635Z,5.26
2019-05-13T23:07:54.812Z,4.15
2019-05-13T23:13:02.135Z,4.43
2019-05-13T23:18:08.818Z,5.52
2019-05-13T23:23:15.201Z,4.17
2019-05-13T23:28:21.715Z,3.69
2019-05-13T23:33:28.572Z,5.08
2019-05-13T23:38:34.860Z,3.98
2019-05-13T23:43:41.140Z,3.96
2019-05-13T23:48:47.629Z,5.86
2019-05-13T23:53:54.112Z,5.55
2019-05-13T23:59:00.214Z,6.21
